createdAt,value
2018-12-10T03:35:24.321Z,5.26
2018-12-10T03:37:52.548Z,5.20
2018-12-10T03:40:20.782Z,5.21
2018-12-10T03:42:49.097Z,5.26
2018-12-10T03:45:17.465Z,5.29
2018-12-10T03:47:45.680Z,5.25
2018-12-10T03:50:13.941Z,5.24
2018-12-10T03:52:42.140Z,5.28
2018-12-10T03:55:10.378Z,5.37
2018-12-10T03:57:38.800Z,5.46
2018-12-10T04:00:07.346Z,5.52
2018-12-10T04:02:35.573Z,5.51
2018-12-10T04:05:04.021Z,5.51
2018-12-10T04:07:32.232Z,5.47
2018-12-10T04:10:00.438Z,5.42
2018-12-10T04:12:28.709Z,5.46
2018-12-10T04:14:56.924Z,5.46
2018-12-10T04:17:25.137Z,5.41
2018-12-10T04:19:53.358Z,5.34
2018-12-10T04:22:21.566Z,5.32
2018-12-10T04:24:49.800Z,5.28
2018-12-10T04:27:18.043Z,5.31
2018-12-10T04:29:46.250Z,5.30
2018-12-10T04:32:14.441Z,5.30
2018-12-10T04:34:42.668Z,5.36
2018-12-10T04:37:10.902Z,5.47
2018-12-10T04:39:39.101Z,5.50
2018-12-10T04:42:07.351Z,5.51
2018-12-10T04:44:35.689Z,5.51
2018-12-10T04:47:04.009Z,5.46
2018-12-10T04:49:32.237Z,5.41
2018-12-10T04:52:00.495Z,5.28
2018-12-10T04:54:28.709Z,5.23
2018-12-10T04:56:57.025Z,5.17
2018-12-10T04:59:25.237Z,5.14
2018-12-10T05:01:53.620Z,5.12
2018-12-10T05:04:21.932Z,5.10
2018-12-10T05:06:50.148Z,5.11
2018-12-10T05:09:18.404Z,5.06
2018-12-10T05:11:46.630Z,5.07
2018-12-10T05:14:14.864Z,5.11
2018-12-10T05:16:43.227Z,5.11
2018-12-10T05:19:11.446Z,5.12
2018-12-10T05:21:39.648Z,5.15
2018-12-10T05:24:07.896Z,5.11
2018-12-10T05:26:36.100Z,5.11
2018-12-10T05:29:04.404Z,5.11
2018-12-10T05:31:32.672Z,5.13
2018-12-10T05:34:00.912Z,5.14
2018-12-10T05:36:29.113Z,5.19
2018-12-10T05:38:57.326Z,5.20
2018-12-10T05:41:25.572Z,5.22
2018-12-10T05:43:53.853Z,5.22
2018-12-10T05:46:22.057Z,5.18
2018-12-10T05:48:50.290Z,5.18
2018-12-10T05:51:18.521Z,5.20
2018-12-10T05:53:46.723Z,5.18
2018-12-10T05:56:14.915Z,5.18
2018-12-10T05:58:43.181Z,5.25
2018-12-10T06:01:11.445Z,5.25
2018-12-10T06:03:39.664Z,5.23
2018-12-10T06:06:07.893Z,5.28
2018-12-10T06:08:36.092Z,5.23
2018-12-10T06:11:04.342Z,5.18
2018-12-10T06:13:32.544Z,5.19
2018-12-10T06:16:00.764Z,5.18
2018-12-10T06:18:29.632Z,5.19
2018-12-10T06:20:58.200Z,5.24
2018-12-10T06:23:26.536Z,5.22
2018-12-10T06:25:54.760Z,5.22
2018-12-10T06:28:22.976Z,5.26
2018-12-10T06:30:51.195Z,5.33
2018-12-10T06:33:19.442Z,5.44
2018-12-10T06:35:47.704Z,5.49
2018-12-10T06:38:15.912Z,5.51
2018-12-10T06:40:44.132Z,5.54
2018-12-10T06:43:12.565Z,5.55
2018-12-10T06:45:40.817Z,5.58
2018-12-10T10:43:20.821Z,6.81
2018-12-10T10:45:49.125Z,6.53
2018-12-10T10:48:17.452Z,6.56
2018-12-10T10:50:45.743Z,6.27
2018-12-10T10:53:13.924Z,6.15
2018-12-10T10:55:42.173Z,6.04
2018-12-10T10:58:10.360Z,6.13
2018-12-10T11:00:44.008Z,6.19
2018-12-10T11:03:21.366Z,6.16
2018-12-10T11:05:49.572Z,6.28
2018-12-10T11:08:17.820Z,6.44
2018-12-10T11:10:46.028Z,6.41
2018-12-10T11:13:14.273Z,6.27
2018-12-10T11:15:42.492Z,5.95
2018-12-10T11:18:10.896Z,6.04
2018-12-10T11:20:39.168Z,5.91
2018-12-10T11:23:07.552Z,6.04
2018-12-10T11:25:35.760Z,6.05
2018-12-10T11:28:04.076Z,6.12
2018-12-10T11:30:32.421Z,6.33
2018-12-10T11:33:00.644Z,6.25
2018-12-10T11:35:29.048Z,6.19
2018-12-10T11:37:57.277Z,6.09
2018-12-10T11:40:25.495Z,6.08
2018-12-10T11:42:53.684Z,6.08
2018-12-10T11:45:22.223Z,6.23
2018-12-10T11:47:50.474Z,6.16
2018-12-10T11:50:18.929Z,5.89
2018-12-10T11:52:47.255Z,5.80
2018-12-10T11:55:15.512Z,5.72
2018-12-10T11:57:43.728Z,5.70
2018-12-10T12:00:12.280Z,5.79
2018-12-10T12:02:40.580Z,5.88
2018-12-10T12:05:08.874Z,6.04
2018-12-10T12:07:37.159Z,6.00
2018-12-10T12:10:07.153Z,6.13
2018-12-10T12:12:35.489Z,6.05
2018-12-10T12:15:03.838Z,6.06
2018-12-10T12:17:32.121Z,6.10
2018-12-10T12:20:00.400Z,6.16
2018-12-10T12:22:28.679Z,6.30
2018-12-10T12:24:56.938Z,6.47
2018-12-10T12:27:25.140Z,6.64
2018-12-10T12:29:53.376Z,6.60
2018-12-10T12:32:21.641Z,6.81
2018-12-10T12:34:49.875Z,6.91
2018-12-10T12:37:18.073Z,6.66
2018-12-10T12:39:46.300Z,6.33
2018-12-10T12:42:14.493Z,6.08
2018-12-10T12:44:42.741Z,5.80
2018-12-10T12:47:10.988Z,5.67
2018-12-10T12:49:39.188Z,5.70
2018-12-10T12:52:07.492Z,5.80
2018-12-10T12:54:35.851Z,5.89
2018-12-10T12:57:04.391Z,5.96
2018-12-10T12:59:32.626Z,5.96
2018-12-10T13:02:00.829Z,5.99
2018-12-10T13:04:33.014Z,6.03
2018-12-10T13:07:01.909Z,6.07
2018-12-10T13:09:30.096Z,6.19
2018-12-10T13:11:58.352Z,6.15
2018-12-10T13:14:26.544Z,6.19
2018-12-10T13:16:54.779Z,6.28
2018-12-10T13:19:23.013Z,6.39
2018-12-10T13:21:51.208Z,6.62
2018-12-10T13:24:19.493Z,6.67
2018-12-10T13:26:48.106Z,6.66
2018-12-10T13:29:16.457Z,6.68
2018-12-10T13:31:44.876Z,6.78
2018-12-10T13:34:13.076Z,6.77
2018-12-10T13:36:41.336Z,6.85
2018-12-10T13:39:09.532Z,6.84
2018-12-10T13:41:37.764Z,6.87
2018-12-10T13:44:06.052Z,6.79
2018-12-10T13:46:34.254Z,6.73
2018-12-10T13:49:02.496Z,6.66
2018-12-10T13:51:30.841Z,6.59
2018-12-10T13:53:59.070Z,6.55
2018-12-10T13:56:27.431Z,6.53
2018-12-10T13:58:55.660Z,6.47
2018-12-10T14:01:23.921Z,6.47
2018-12-10T14:03:52.149Z,6.48
2018-12-10T14:06:20.381Z,6.45
2018-12-10T14:08:48.676Z,6.42
2018-12-10T14:11:16.918Z,6.40
2018-12-10T14:13:45.230Z,6.28
2018-12-10T14:16:13.505Z,6.22
2018-12-10T14:18:41.724Z,6.18
2018-12-10T14:21:10.086Z,6.15
2018-12-10T14:23:38.361Z,6.11
2018-12-10T14:26:06.559Z,6.08
2018-12-10T14:28:34.757Z,6.00
2018-12-10T14:31:03.785Z,6.06
2018-12-10T14:33:32.129Z,6.04
2018-12-10T14:36:00.369Z,6.08
2018-12-10T14:38:28.566Z,6.05
2018-12-10T14:40:56.967Z,6.08
2018-12-10T14:43:25.157Z,6.02
2018-12-10T14:45:53.495Z,5.98
2018-12-10T14:48:21.689Z,5.98
2018-12-10T14:50:49.928Z,5.97
2018-12-10T14:53:18.237Z,5.93
2018-12-10T14:55:46.512Z,5.97
2018-12-10T14:58:14.893Z,6.04
2018-12-10T15:00:43.103Z,6.08
2018-12-10T15:03:11.356Z,6.08
2018-12-10T15:05:39.561Z,6.14
2018-12-10T15:08:07.764Z,6.20
2018-12-10T15:10:35.996Z,6.18
2018-12-10T15:13:04.193Z,6.20
2018-12-10T15:15:32.471Z,6.21
2018-12-10T15:18:00.794Z,6.18
2018-12-10T15:20:29.161Z,6.11
2018-12-10T15:22:57.354Z,6.15
2018-12-10T15:25:25.564Z,6.17
2018-12-10T15:27:53.799Z,6.23
2018-12-10T15:30:22.208Z,6.25
2018-12-10T15:32:50.464Z,6.34
2018-12-10T15:35:18.661Z,6.40
2018-12-10T15:37:46.967Z,6.40
2018-12-10T15:40:15.214Z,6.40
2018-12-10T15:42:43.461Z,6.42
2018-12-10T15:45:11.674Z,6.42
2018-12-10T15:47:39.884Z,6.47
2018-12-10T15:50:08.109Z,6.49
2018-12-10T15:52:36.470Z,6.49
2018-12-10T15:55:05.105Z,6.51
2018-12-10T15:57:33.300Z,6.50
2018-12-10T16:00:01.692Z,6.55
2018-12-10T16:02:29.983Z,6.57
2018-12-10T16:04:58.221Z,6.54
2018-12-10T16:07:26.624Z,6.54
2018-12-10T16:09:54.820Z,6.61
2018-12-10T16:12:23.059Z,6.62
2018-12-10T16:14:51.281Z,6.67
2018-12-10T16:17:19.637Z,6.67
2018-12-10T16:19:47.940Z,6.69
2018-12-10T16:22:16.252Z,6.59
2018-12-10T16:24:44.501Z,6.51
2018-12-10T16:27:13.029Z,6.45
2018-12-10T16:29:41.305Z,6.40
2018-12-10T16:32:09.566Z,6.43
2018-12-10T16:34:37.770Z,6.40
2018-12-10T16:37:06.110Z,6.41
2018-12-10T16:39:34.452Z,6.43
2018-12-10T16:42:02.684Z,6.42
2018-12-10T16:44:31.036Z,6.42
2018-12-10T16:46:59.236Z,6.41
2018-12-10T16:49:27.576Z,6.41
2018-12-10T16:51:55.880Z,6.46
2018-12-10T16:54:24.079Z,6.40
2018-12-10T16:56:52.432Z,6.26
2018-12-10T16:59:20.635Z,6.22
2018-12-10T17:01:48.831Z,6.20
2018-12-10T17:04:17.080Z,6.20
2018-12-10T17:06:45.336Z,6.21
2018-12-10T17:09:13.847Z,6.27
2018-12-10T17:11:42.356Z,6.30
2018-12-10T17:14:10.980Z,6.29
2018-12-10T17:16:39.668Z,6.23
2018-12-10T17:19:07.908Z,6.22
2018-12-10T17:21:36.285Z,6.21
2018-12-10T17:24:04.569Z,6.19
2018-12-10T17:26:32.861Z,6.14
2018-12-10T17:29:01.159Z,6.17
2018-12-10T17:31:29.489Z,6.11
2018-12-10T17:33:57.760Z,6.08
2018-12-10T17:36:26.196Z,6.06
2018-12-10T17:38:54.448Z,6.05
2018-12-10T17:41:22.826Z,6.09
2018-12-10T17:43:51.106Z,6.02
2018-12-10T17:46:19.407Z,6.01
2018-12-10T17:48:47.621Z,5.99
2018-12-10T17:51:15.860Z,5.96
2018-12-10T17:53:44.424Z,5.90
2018-12-10T17:56:12.740Z,5.90
2018-12-10T17:58:41.040Z,5.85
2018-12-10T18:01:09.384Z,5.84
2018-12-10T18:03:37.580Z,5.81
2018-12-10T18:06:06.790Z,5.75
2018-12-10T18:08:35.008Z,5.70
2018-12-10T18:11:03.244Z,5.66
2018-12-10T18:13:31.483Z,5.59
2018-12-10T18:15:59.697Z,5.59
2018-12-10T18:18:27.913Z,5.55
2018-12-10T18:20:56.152Z,5.53
2018-12-10T18:23:24.352Z,5.54
2018-12-10T18:25:52.624Z,5.49
2018-12-10T18:28:20.920Z,5.47
2018-12-10T18:30:49.449Z,5.42
2018-12-10T18:33:17.737Z,5.47
2018-12-10T18:35:45.931Z,5.45
2018-12-10T18:38:14.284Z,5.41
2018-12-10T18:40:42.497Z,5.41
2018-12-10T18:43:10.844Z,5.40
2018-12-10T18:45:39.086Z,5.38
2018-12-10T18:48:07.368Z,5.35
2018-12-10T18:50:35.608Z,5.33
2018-12-10T18:53:03.949Z,5.31
2018-12-10T18:55:32.160Z,5.29
2018-12-10T18:58:00.492Z,5.29
2018-12-10T19:00:28.759Z,5.29
2018-12-10T19:02:56.960Z,5.31
2018-12-10T19:05:28.344Z,5.29
2018-12-10T19:07:56.741Z,5.30
2018-12-10T19:10:25.056Z,5.26
2018-12-10T19:12:53.424Z,5.30
2018-12-10T19:15:21.677Z,5.28
2018-12-10T19:17:49.912Z,5.28
2018-12-10T19:20:18.188Z,5.27
2018-12-10T19:22:46.436Z,5.23
2018-12-10T19:25:14.676Z,5.20
2018-12-10T19:27:42.872Z,5.22
2018-12-10T19:30:11.128Z,5.22
2018-12-10T19:32:39.374Z,5.20
2018-12-10T19:35:08.250Z,5.17
2018-12-10T19:37:36.448Z,5.18
2018-12-10T19:40:05.800Z,5.19
2018-12-10T19:42:33.996Z,5.20
2018-12-10T19:45:02.310Z,5.19
2018-12-10T19:47:30.571Z,5.21
2018-12-10T19:49:58.956Z,5.19
2018-12-10T19:52:27.370Z,5.16
2018-12-10T19:54:55.793Z,5.18
2018-12-10T19:57:23.996Z,5.18
2018-12-10T19:59:52.183Z,5.22
2018-12-10T20:02:20.684Z,5.23
2018-12-10T20:04:48.880Z,5.27
2018-12-10T20:07:17.233Z,5.31
2018-12-10T20:09:45.521Z,5.32
2018-12-10T20:12:13.768Z,5.35
2018-12-10T20:14:41.963Z,5.36
2018-12-10T20:17:10.231Z,5.40
2018-12-10T20:19:38.426Z,5.36
2018-12-10T20:22:06.691Z,5.39
2018-12-10T20:24:35.180Z,5.41
2018-12-10T20:27:03.457Z,5.44
2018-12-10T20:29:31.657Z,5.50
2018-12-10T20:31:59.865Z,5.55
2018-12-10T20:34:28.124Z,5.52
2018-12-10T20:36:56.325Z,5.53
2018-12-10T20:39:24.612Z,5.57
2018-12-10T20:41:52.843Z,5.55
2018-12-10T20:44:21.073Z,5.59
2018-12-10T20:46:49.300Z,5.55
2018-12-10T20:49:17.537Z,5.56
2018-12-10T20:51:45.776Z,5.57
2018-12-10T20:54:14.014Z,5.56
2018-12-10T20:56:42.322Z,5.59
2018-12-10T20:59:10.565Z,5.58
2018-12-10T21:01:38.807Z,5.62
2018-12-10T21:04:07.156Z,5.63
2018-12-10T21:06:37.162Z,5.62
2018-12-10T21:09:08.117Z,5.60
2018-12-10T21:11:36.480Z,5.58
2018-12-10T21:14:04.956Z,5.54
2018-12-10T21:16:33.161Z,5.51
2018-12-10T21:19:01.469Z,5.53
2018-12-10T21:21:29.676Z,5.50
2018-12-10T21:23:57.900Z,5.50
2018-12-10T21:26:26.164Z,5.45
2018-12-10T21:28:54.364Z,5.46
2018-12-10T21:31:22.720Z,5.49
2018-12-10T21:33:50.941Z,5.48
2018-12-10T21:36:19.221Z,5.47
2018-12-10T21:38:47.508Z,5.47
2018-12-10T21:41:15.808Z,5.49
2018-12-10T21:43:44.013Z,5.50
2018-12-10T21:46:12.256Z,5.50
2018-12-10T21:48:40.501Z,5.51
2018-12-10T21:51:08.705Z,5.50
2018-12-10T21:53:36.972Z,5.51
2018-12-10T21:56:05.206Z,5.49
2018-12-10T21:58:33.481Z,5.52
2018-12-10T22:01:01.664Z,5.53
2018-12-10T22:03:29.884Z,5.51
2018-12-10T22:05:58.257Z,5.50
2018-12-10T22:08:26.476Z,5.49
2018-12-10T22:10:54.733Z,5.46
2018-12-10T22:13:23.040Z,5.46
2018-12-10T22:15:51.247Z,5.49
2018-12-10T22:18:19.546Z,5.54
2018-12-10T22:20:47.768Z,5.54
2018-12-10T22:23:16.104Z,5.55
2018-12-10T22:25:44.301Z,5.53
2018-12-10T22:28:12.557Z,5.53
2018-12-10T22:30:40.896Z,5.53
2018-12-10T22:33:09.108Z,5.54
2018-12-10T22:35:37.384Z,5.57
2018-12-10T22:38:05.630Z,5.56
2018-12-10T22:40:33.840Z,5.62
2018-12-10T22:43:02.096Z,5.57
2018-12-10T22:45:30.294Z,5.59
2018-12-10T22:47:58.502Z,5.61
2018-12-10T22:50:32.787Z,5.58
2018-12-10T22:53:01.119Z,5.60
2018-12-10T22:55:29.374Z,5.63
2018-12-10T22:57:57.603Z,5.60
2018-12-10T23:00:31.608Z,5.58
2018-12-10T23:02:59.815Z,5.58
2018-12-10T23:05:28.016Z,5.59
2018-12-10T23:07:56.254Z,5.59
2018-12-10T23:10:24.459Z,5.59
2018-12-10T23:12:52.657Z,5.60
2018-12-10T23:15:21.053Z,5.61
2018-12-10T23:17:49.249Z,5.61
2018-12-10T23:20:17.873Z,5.62
2018-12-10T23:22:46.186Z,5.58
2018-12-10T23:25:14.380Z,5.60
2018-12-10T23:27:42.635Z,5.58
2018-12-10T23:30:11.084Z,5.57
2018-12-10T23:32:39.348Z,5.53
2018-12-10T23:35:07.660Z,5.53
2018-12-10T23:37:35.888Z,5.50
2018-12-10T23:40:04.502Z,5.51
2018-12-10T23:42:33.112Z,5.50
2018-12-10T23:45:01.362Z,5.46
2018-12-10T23:47:29.584Z,5.46
2018-12-10T23:49:57.828Z,5.48
2018-12-10T23:52:26.132Z,5.48
2018-12-10T23:54:54.369Z,5.41
2018-12-10T23:57:22.570Z,5.40
2018-12-10T23:59:50.792Z,5.41
